Time;durP1;ratioP1;P1;durP2;ratioP2;P2;SDS_P1;SDS_P2;PMS_P1;PMS_P2;Temp;Humidity;BMP_temperature;BMP_pressure;BME280_temperature;BME280_humidity;BME280_pressure;Samples;Min_cycle;Max_cycle;Signal;HPM_P1;HPM_P2
2022/01/19 00:00:52;;;;;;;8.28;4.05;;;;;;;-3.11;83.37;101418.28;1837932;78;21098;-61
2022/01/19 00:03:21;;;;;;;6.58;3.30;;;;;;;-3.09;83.20;101430.34;1826876;78;21566;-61
2022/01/19 00:05:52;;;;;;;6.95;4.10;;;;;;;-3.12;83.14;101426.86;1859263;77;21160;-62
2022/01/19 00:08:22;;;;;;;6.45;4.22;;;;;;;-3.15;83.17;101434.48;1857147;77;21120;-62
2022/01/19 00:10:52;;;;;;;6.37;3.37;;;;;;;-3.20;83.21;101439.05;1852115;77;21018;-65
2022/01/19 00:13:21;;;;;;;7.67;3.02;;;;;;;-3.22;83.31;101444.58;1857086;77;21045;-61
2022/01/19 00:15:51;;;;;;;6.83;3.70;;;;;;;-3.25;83.44;101437.62;1844399;77;21593;-63
2022/01/19 00:18:21;;;;;;;6.92;3.87;;;;;;;-3.28;83.48;101429.83;1806713;79;21025;-63
2022/01/19 00:20:51;;;;;;;9.00;3.80;;;;;;;-3.30;83.35;101426.34;1807297;79;21492;-65
2022/01/19 00:23:21;;;;;;;9.30;4.05;;;;;;;-3.32;83.17;101430.54;1839518;77;21040;-62
2022/01/19 00:25:52;;;;;;;8.95;4.12;;;;;;;-3.34;83.10;101432.20;1839222;78;21130;-63
2022/01/19 00:28:21;;;;;;;4.83;3.05;;;;;;;-3.33;83.35;101427.52;1839207;78;21069;-60
2022/01/19 00:30:50;;;;;;;7.67;4.95;;;;;;;-3.33;83.34;101424.52;1839116;78;21460;-62
2022/01/19 00:33:19;;;;;;;8.35;4.42;;;;;;;-3.31;83.62;101424.58;1856832;77;21038;-62
2022/01/19 00:35:50;;;;;;;9.30;3.75;;;;;;;-3.32;83.67;101419.84;1870737;77;21529;-64
2022/01/19 00:38:20;;;;;;;8.00;4.25;;;;;;;-3.33;83.77;101418.09;1840091;77;21138;-60
2022/01/19 00:40:49;;;;;;;5.12;3.08;;;;;;;-3.35;83.77;101421.03;1838993;78;21494;-60
2022/01/19 00:43:18;;;;;;;8.25;3.80;;;;;;;-3.36;83.67;101424.85;1857979;77;21487;-65
2022/01/19 00:45:46;;;;;;;7.40;4.47;;;;;;;-3.40;83.51;101421.73;1868207;77;21061;-62
2022/01/19 00:48:15;;;;;;;7.05;4.28;;;;;;;-3.44;83.64;101425.05;1832678;78;21081;-63
2022/01/19 00:50:44;;;;;;;5.58;3.50;;;;;;;-3.46;83.56;101421.14;1814536;78;21143;-60
2022/01/19 00:53:12;;;;;;;6.92;2.90;;;;;;;-3.45;83.74;101415.57;1862417;77;21131;-59
2022/01/19 00:55:43;;;;;;;5.15;2.85;;;;;;;-3.47;83.68;101412.08;1820614;78;21091;-60
2022/01/19 00:58:12;;;;;;;7.00;3.25;;;;;;;-3.51;83.66;101410.70;1853922;77;21163;-63
2022/01/19 01:00:41;;;;;;;5.22;2.90;;;;;;;-3.53;83.68;101415.35;1837748;78;21639;-62
2022/01/19 01:03:11;;;;;;;6.47;3.55;;;;;;;-3.56;83.65;101423.87;1844542;77;21149;-64
2022/01/19 01:05:42;;;;;;;6.58;2.20;;;;;;;-3.57;83.64;101432.83;1868284;77;21159;-62
2022/01/19 01:08:11;;;;;;;6.03;3.05;;;;;;;-3.60;83.70;101433.59;1852843;77;21139;-61
2022/01/19 01:10:43;;;;;;;6.40;2.85;;;;;;;-3.61;83.72;101432.29;1837974;78;21142;-62
2022/01/19 01:16:16;;;;;;;6.72;2.62;;;;;;;-3.69;83.80;101452.62;1835525;77;21529;-61
2022/01/19 01:18:35;;;;;;;6.30;3.17;;;;;;;-3.69;83.90;101456.09;1805761;79;21075;-61
2022/01/19 01:21:05;;;;;;;5.25;3.12;;;;;;;-3.67;84.10;101444.95;1807834;79;21168;-61
2022/01/19 01:23:35;;;;;;;6.10;2.85;;;;;;;-3.70;83.98;101441.46;1807558;79;21108;-61
2022/01/19 01:26:07;;;;;;;3.72;2.02;;;;;;;-3.71;84.13;101446.55;1808219;78;21043;-61
2022/01/19 01:28:35;;;;;;;5.42;3.02;;;;;;;-3.71;84.05;101438.84;1809080;79;21097;-60
2022/01/19 01:31:07;;;;;;;5.62;2.87;;;;;;;-3.74;84.19;101434.48;1830648;78;21081;-60
2022/01/19 01:33:35;;;;;;;7.53;3.52;;;;;;;-3.75;84.07;101421.14;1803460;78;21062;-60
2022/01/19 01:36:04;;;;;;;7.25;3.17;;;;;;;-3.79;83.87;101425.74;1811360;78;21200;-60
2022/01/19 01:38:33;;;;;;;6.53;3.20;;;;;;;-3.79;83.68;101427.45;1870843;77;21081;-60
2022/01/19 01:41:02;;;;;;;5.35;3.50;;;;;;;-3.81;83.56;101437.69;1869512;77;21072;-60
2022/01/19 01:43:30;;;;;;;5.28;3.25;;;;;;;-3.83;83.53;101439.77;1828851;78;21061;-61
2022/01/19 01:46:04;;;;;;;5.75;3.12;;;;;;;-3.83;83.54;101437.20;1844061;78;21156;-60
2022/01/19 01:48:30;;;;;;;3.05;1.62;;;;;;;-3.82;83.71;101441.08;1830027;78;21065;-60
2022/01/19 01:53:50;;;;;;;8.08;3.47;;;;;;;-3.79;83.86;101446.75;1837900;77;21057;-61
2022/01/19 01:56:19;;;;;;;4.60;2.45;;;;;;;-3.88;83.79;101443.05;1833908;77;21046;-60
2022/01/19 01:58:51;;;;;;;5.08;2.65;;;;;;;-3.89;83.98;101452.90;1810446;78;21138;-59
2022/01/19 02:01:22;;;;;;;5.67;2.55;;;;;;;-3.89;83.98;101455.47;1849646;77;21065;-59
2022/01/19 02:03:51;;;;;;;8.85;3.25;;;;;;;-3.88;83.93;101458.48;1825719;77;21034;-60
2022/01/19 02:06:31;;;;;;;5.92;2.83;;;;;;;-3.89;83.91;101456.76;1812786;79;21484;-59
2022/01/19 02:09:06;;;;;;;6.53;2.72;;;;;;;-3.91;83.82;101464.84;1831307;78;21084;-60
2022/01/19 02:22:35;;;;;;;6.42;3.10;;;;;;;-4.22;84.03;101458.22;1837984;78;21020;-66
2022/01/19 02:25:05;;;;;;;7.60;4.25;;;;;;;-4.25;84.17;101459.02;1838766;78;21122;-64
2022/01/19 02:41:29;;;;;;;7.33;3.85;;;;;;;-4.25;84.49;101465.86;1844692;77;21026;-66
2022/01/19 02:43:57;;;;;;;6.08;3.70;;;;;;;-4.24;84.35;101478.78;1861730;77;21082;-68
2022/01/19 02:49:17;;;;;;;7.55;2.62;;;;;;;-4.20;84.49;101488.75;1820604;78;21545;-70
2022/01/19 02:51:52;;;;;;;3.00;1.67;;;;;;;-4.15;84.62;101485.89;1820689;79;21199;-67
2022/01/19 02:54:23;;;;;;;5.00;2.87;;;;;;;-4.06;84.63;101488.77;1820632;79;21164;-64
2022/01/19 02:56:55;;;;;;;6.37;2.37;;;;;;;-4.02;84.58;101485.89;1810876;77;21045;-69
2022/01/19 02:59:36;;;;;;;4.80;2.52;;;;;;;-4.00;84.48;101488.99;1805357;78;21120;-68
2022/01/19 03:10:17;;;;;;;12.13;5.17;;;;;;;-4.02;84.03;101500.94;1848366;77;21552;-62
2022/01/19 03:12:46;;;;;;;9.95;5.53;;;;;;;-4.02;84.09;101505.18;1804087;79;21065;-62
2022/01/19 03:15:16;;;;;;;14.33;5.15;;;;;;;-3.98;84.23;101514.35;1804039;79;21090;-62
2022/01/19 03:17:45;;;;;;;5.67;3.47;;;;;;;-3.95;84.33;101512.28;1804197;79;21153;-64
2022/01/19 03:20:14;;;;;;;9.30;2.87;;;;;;;-3.90;84.49;101518.03;1835654;77;21057;-64
2022/01/19 03:22:52;;;;;;;7.78;3.37;;;;;;;-3.80;84.66;101517.05;1835754;78;21493;-62
2022/01/19 03:25:13;;;;;;;6.22;3.25;;;;;;;-3.71;84.77;101523.77;1834014;78;21066;-63
2022/01/19 03:27:47;;;;;;;11.60;4.55;;;;;;;-3.62;84.85;101525.34;1835687;78;21492;-65
2022/01/19 03:30:19;;;;;;;14.00;7.47;;;;;;;-3.53;84.86;101533.36;1836966;77;21129;-63
2022/01/19 03:32:48;;;;;;;5.78;3.92;;;;;;;-3.40;84.83;101535.04;1835728;78;21037;-62
2022/01/19 03:35:17;;;;;;;11.88;5.80;;;;;;;-3.34;84.75;101542.94;1835655;78;21057;-61
2022/01/19 03:37:46;;;;;;;12.10;5.08;;;;;;;-3.30;84.66;101543.09;1835678;78;21464;-63
2022/01/19 03:40:15;;;;;;;10.38;4.15;;;;;;;-3.28;84.43;101547.02;1833553;77;21049;-62
2022/01/19 03:42:44;;;;;;;15.93;5.95;;;;;;;-3.26;84.27;101542.78;1820698;79;21537;-62
2022/01/19 03:45:13;;;;;;;10.28;5.67;;;;;;;-3.26;84.15;101550.50;1820486;78;21159;-63
2022/01/19 03:47:49;;;;;;;8.98;3.40;;;;;;;-3.24;84.17;101547.56;1820641;79;21070;-62
2022/01/19 03:50:14;;;;;;;11.95;4.12;;;;;;;-3.20;84.07;101549.39;1819798;79;21144;-64
2022/01/19 03:52:42;;;;;;;9.85;4.08;;;;;;;-3.15;83.86;101550.41;1820608;79;21058;-63
2022/01/19 03:55:11;;;;;;;8.28;4.17;;;;;;;-3.08;83.61;101550.59;1836645;77;21046;-64
2022/01/19 03:57:40;;;;;;;11.43;4.65;;;;;;;-3.03;83.69;101547.31;1861615;77;21562;-64
2022/01/19 04:00:11;;;;;;;13.95;7.75;;;;;;;-2.95;83.81;101547.14;1860588;77;21523;-64
2022/01/19 04:02:41;;;;;;;7.55;3.77;;;;;;;-2.86;83.79;101552.95;1858931;77;21081;-64
2022/01/19 04:05:20;;;;;;;6.22;3.40;;;;;;;-2.80;83.61;101550.58;1853586;77;21090;-61
2022/01/19 04:07:41;;;;;;;6.87;3.10;;;;;;;-2.75;83.61;101556.74;1834245;77;21061;-62
2022/01/19 04:10:10;;;;;;;9.20;3.72;;;;;;;-2.70;83.60;101563.72;1839336;78;21063;-67
2022/01/19 04:12:46;;;;;;;5.90;3.22;;;;;;;-2.67;83.58;101563.40;1839584;78;21153;-61
2022/01/19 04:15:18;;;;;;;9.55;5.03;;;;;;;-2.65;83.56;101565.60;1839387;77;21079;-63
2022/01/19 04:17:53;;;;;;;9.43;5.03;;;;;;;-2.64;83.51;101553.15;1835600;78;21127;-62
2022/01/19 04:20:18;;;;;;;8.20;4.90;;;;;;;-2.62;83.52;101548.05;1834485;78;21605;-63
2022/01/19 04:22:47;;;;;;;8.85;4.60;;;;;;;-2.60;83.51;101547.66;1835249;78;21590;-62
2022/01/19 04:25:16;;;;;;;8.25;5.92;;;;;;;-2.59;83.52;101545.56;1835417;78;21062;-64
2022/01/19 04:27:45;;;;;;;7.53;3.17;;;;;;;-2.58;83.57;101548.61;1836969;77;21049;-64
2022/01/19 04:30:15;;;;;;;5.17;2.95;;;;;;;-2.58;83.59;101550.77;1835365;78;21089;-63
2022/01/19 04:35:44;;;;;;;6.33;3.65;;;;;;;-2.57;83.63;101555.50;1835263;78;21527;-62
2022/01/19 04:49:11;;;;;;;4.78;2.83;;;;;;;-2.52;83.60;101586.16;1832947;78;21058;-65
2022/01/19 05:03:24;;;;;;;4.92;2.30;;;;;;;-2.36;83.63;101598.66;1855102;77;21048;-65
2022/01/19 05:05:32;;;;;;;6.05;2.98;;;;;;;-2.37;83.63;101589.58;1846553;77;21089;-66
2022/01/19 05:08:12;;;;;;;9.75;3.42;;;;;;;-2.34;83.62;101594.41;1860985;77;21046;-64
2022/01/19 05:13:34;;;;;;;7.08;2.85;;;;;;;-2.27;83.53;101613.91;1858899;77;21543;-65
2022/01/19 05:15:57;;;;;;;10.88;2.83;;;;;;;-2.24;83.50;101608.84;1860395;77;21128;-65
2022/01/19 05:18:26;;;;;;;6.47;3.70;;;;;;;-2.26;83.37;101597.62;1861840;77;21108;-64
2022/01/19 05:20:55;;;;;;;3.45;2.22;;;;;;;-2.19;83.42;101605.56;1861769;77;21046;-65
2022/01/19 05:23:31;;;;;;;7.90;2.65;;;;;;;-2.14;83.45;101601.41;1854399;77;21096;-62
2022/01/19 05:26:00;;;;;;;5.80;3.02;;;;;;;-2.09;83.46;101616.99;1861802;77;21655;-62
2022/01/19 05:28:31;;;;;;;6.17;2.70;;;;;;;-2.09;83.06;101609.25;1860083;77;21090;-63
2022/01/19 05:30:59;;;;;;;6.20;3.12;;;;;;;-2.02;83.57;101620.63;1861783;77;21140;-63
2022/01/19 05:33:28;;;;;;;4.87;2.42;;;;;;;-1.98;83.22;101627.19;1861624;77;21109;-64
2022/01/19 05:35:58;;;;;;;3.22;1.75;;;;;;;-2.01;83.04;101622.36;1861615;77;21101;-66
2022/01/19 05:38:40;;;;;;;4.17;2.20;;;;;;;-1.90;82.92;101629.09;1798218;78;21057;-62
2022/01/19 05:41:13;;;;;;;3.40;1.82;;;;;;;-1.90;82.92;101629.09;1832770;78;21088;-62
2022/01/19 05:43:43;;;;;;;5.72;2.25;;;;;;;-1.82;82.89;101634.06;1835730;78;21058;-62
2022/01/19 05:46:12;;;;;;;4.20;1.95;;;;;;;-1.76;82.81;101631.62;1835450;78;21065;-64
2022/01/19 05:48:40;;;;;;;4.22;2.17;;;;;;;-1.73;82.74;101630.82;1828207;77;21133;-62
2022/01/19 05:51:09;;;;;;;5.78;1.55;;;;;;;-1.65;82.70;101627.61;1820517;79;21080;-62
2022/01/19 05:53:39;;;;;;;3.92;2.02;;;;;;;-0.98;82.71;101632.63;1820642;79;21062;-62
2022/01/19 05:56:09;;;;;;;6.80;2.22;;;;;;;0.92;80.55;101637.06;1820517;79;21621;-66
2022/01/19 05:58:39;;;;;;;2.45;1.90;;;;;;;0.92;80.55;101637.06;1817773;79;21105;-67
2022/01/19 06:01:08;;;;;;;4.53;1.65;;;;;;;1.69;79.96;101621.23;1820467;78;21614;-67
2022/01/19 06:03:37;;;;;;;4.45;2.12;;;;;;;2.24;79.64;101615.31;1823275;77;21082;-68
2022/01/19 06:06:07;;;;;;;2.83;1.70;;;;;;;2.25;79.59;101622.27;1762192;79;21101;-68
2022/01/19 06:08:59;;;;;;;5.15;1.92;;;;;;;1.97;79.33;101624.13;1788987;79;21093;-66
2022/01/19 06:11:17;;;;;;;4.60;2.00;;;;;;;1.49;78.60;101630.93;1818285;79;21133;-65
2022/01/19 06:13:47;;;;;;;4.58;2.20;;;;;;;1.10;78.71;101636.47;1830366;77;21610;-67
2022/01/19 06:16:16;;;;;;;5.53;1.98;;;;;;;0.87;79.17;101638.73;1835577;78;21061;-67
2022/01/19 06:18:45;;;;;;;5.40;2.02;;;;;;;1.81;78.79;101636.96;1835717;78;21175;-62
2022/01/19 06:21:16;;;;;;;4.08;2.12;;;;;;;1.99;78.47;101639.30;1835566;78;21139;-62
2022/01/19 06:23:46;;;;;;;6.75;1.90;;;;;;;1.76;78.07;101650.31;1831980;77;21062;-63
2022/01/19 06:26:17;;;;;;;6.22;3.02;;;;;;;1.68;77.82;101652.82;1820235;79;21163;-63
2022/01/19 06:28:46;;;;;;;6.25;3.17;;;;;;;2.17;77.29;101653.78;1820533;78;21541;-63
2022/01/19 06:31:15;;;;;;;7.17;3.12;;;;;;;2.53;77.14;101651.11;1820527;79;21086;-64
2022/01/19 06:33:44;;;;;;;7.08;4.35;;;;;;;3.50;76.39;101651.73;1823177;77;21616;-64
2022/01/19 06:36:14;;;;;;;7.20;3.58;;;;;;;4.20;75.90;101650.23;1820425;79;21090;-66
2022/01/19 06:38:44;;;;;;;4.50;3.72;;;;;;;4.59;75.05;101649.43;1818143;79;21089;-63
2022/01/19 06:41:14;;;;;;;5.20;3.52;;;;;;;4.79;73.70;101655.06;1818038;79;21114;-64
2022/01/19 06:43:43;;;;;;;4.50;2.45;;;;;;;4.90;72.64;101655.92;1820598;78;21497;-64
2022/01/19 06:46:12;;;;;;;6.17;3.55;;;;;;;5.64;71.50;101664.89;1836969;77;21508;-64
2022/01/19 06:48:41;;;;;;;5.95;2.87;;;;;;;5.87;71.90;101665.25;1835484;78;21601;-64
2022/01/19 06:51:11;;;;;;;8.35;3.60;;;;;;;6.51;71.10;101662.27;1835475;78;21081;-64
2022/01/19 06:53:52;;;;;;;3.33;1.82;;;;;;;6.87;70.48;101665.45;1830755;78;21105;-66
2022/01/19 06:56:22;;;;;;;3.77;2.33;;;;;;;7.72;69.31;101665.42;1824583;77;21074;-66
2022/01/19 06:58:53;;;;;;;3.80;1.95;;;;;;;7.42;68.86;101671.91;1819056;79;21208;-64
2022/01/19 07:01:24;;;;;;;4.25;2.15;;;;;;;6.81;69.73;101677.30;1821472;78;21117;-64
2022/01/19 07:04:01;;;;;;;3.85;1.72;;;;;;;6.09;69.92;101676.50;1813485;78;21066;-63
2022/01/19 07:06:32;;;;;;;4.53;2.12;;;;;;;6.60;69.34;101676.16;1829463;78;21156;-64
2022/01/19 07:09:20;;;;;;;3.67;1.75;;;;;;;7.51;68.39;101676.19;1830317;78;21488;-67
2022/01/19 07:11:56;;;;;;;2.47;1.40;;;;;;;7.12;68.78;101674.42;1829186;78;21160;-65
2022/01/19 07:14:26;;;;;;;3.98;2.02;;;;;;;6.47;67.84;101682.77;1829422;78;21119;-64
2022/01/19 07:16:56;;;;;;;2.80;1.75;;;;;;;5.93;68.01;101684.81;1829057;78;21094;-64
2022/01/19 07:19:25;;;;;;;5.35;1.85;;;;;;;5.78;68.40;101684.00;1829434;78;21081;-63
2022/01/19 07:21:54;;;;;;;4.28;1.98;;;;;;;5.53;67.49;101690.19;1829931;78;21104;-63
2022/01/19 07:24:22;;;;;;;3.00;1.82;;;;;;;5.34;67.80;101692.84;1829573;78;21053;-64
2022/01/19 07:26:52;;;;;;;2.60;1.72;;;;;;;5.04;67.82;101684.63;1829586;78;21109;-64
2022/01/19 07:29:22;;;;;;;5.33;2.02;;;;;;;4.60;67.71;101681.59;1829092;78;21062;-62
2022/01/19 07:31:55;;;;;;;4.20;1.77;;;;;;;4.16;68.22;101688.46;1830179;78;21105;-63
2022/01/19 07:34:23;;;;;;;2.80;1.60;;;;;;;3.72;68.42;101681.36;1829646;78;21085;-61
2022/01/19 07:36:54;;;;;;;3.45;2.25;;;;;;;3.46;68.96;101689.91;1829474;78;21477;-62
2022/01/19 07:39:24;;;;;;;4.45;1.80;;;;;;;3.41;69.38;101690.75;1829592;78;21065;-63
2022/01/19 07:41:55;;;;;;;3.77;1.85;;;;;;;3.35;68.94;101695.48;1830772;78;21151;-63
2022/01/19 07:44:28;;;;;;;3.70;1.85;;;;;;;3.50;69.31;101695.14;1776795;78;21058;-66
2022/01/19 07:47:14;;;;;;;1.47;1.30;;;;;;;3.75;67.96;101688.33;1829380;78;21156;-69
2022/01/19 07:50:04;;;;;;;3.42;1.67;;;;;;;4.39;66.99;101680.70;1827154;78;21085;-69
2022/01/19 07:52:44;;;;;;;3.37;2.00;;;;;;;5.26;65.69;101676.34;1829518;78;21503;-66
2022/01/19 07:55:17;;;;;;;3.87;1.77;;;;;;;6.19;64.62;101672.48;1827416;78;21077;-67
2022/01/19 07:57:51;;;;;;;2.65;2.12;;;;;;;6.32;63.83;101675.05;1828922;78;21120;-66
2022/01/19 08:00:33;;;;;;;2.05;1.60;;;;;;;6.23;64.54;101677.72;1829120;78;21081;-67
2022/01/19 08:03:03;;;;;;;2.65;1.60;;;;;;;6.70;62.82;101665.61;1848229;77;21597;-66
2022/01/19 08:05:46;;;;;;;1.95;1.30;;;;;;;6.55;62.85;101667.05;1859152;77;21081;-68
2022/01/19 08:08:15;;;;;;;1.32;1.10;;;;;;;6.03;63.68;101663.44;1861909;77;21625;-67
2022/01/19 08:10:45;;;;;;;3.65;1.75;;;;;;;5.50;64.25;101662.78;1861831;77;21484;-66
2022/01/19 08:13:16;;;;;;;2.15;1.47;;;;;;;4.93;64.81;101667.67;1858790;77;21136;-64
2022/01/19 08:15:45;;;;;;;3.10;1.37;;;;;;;5.08;64.75;101669.84;1861835;77;21049;-64
2022/01/19 08:18:13;;;;;;;4.30;1.67;;;;;;;5.98;63.86;101663.48;1861624;77;21076;-67
2022/01/19 08:20:43;;;;;;;2.37;1.22;;;;;;;6.81;62.01;101658.98;1861782;77;21132;-62
2022/01/19 08:23:13;;;;;;;3.70;1.87;;;;;;;7.37;61.70;101661.05;1858834;77;21061;-60
2022/01/19 08:25:46;;;;;;;2.95;2.02;;;;;;;7.35;62.38;101659.75;1852270;77;21069;-61
2022/01/19 08:28:15;;;;;;;2.40;1.60;;;;;;;6.81;62.42;101665.52;1861800;77;21468;-60
2022/01/19 08:30:44;;;;;;;4.80;2.33;;;;;;;6.53;63.16;101668.81;1861610;77;21543;-64
2022/01/19 08:33:15;;;;;;;4.53;1.70;;;;;;;6.11;63.46;101668.20;1858441;77;21569;-63
2022/01/19 08:35:54;;;;;;;3.25;2.00;;;;;;;5.54;63.64;101674.51;1860853;77;21188;-62
2022/01/19 08:38:34;;;;;;;3.22;1.87;;;;;;;5.14;64.47;101670.68;1829303;77;21073;-62
2022/01/19 08:41:11;;;;;;;4.05;1.70;;;;;;;4.83;65.04;101666.81;1859415;77;21116;-62
2022/01/19 08:43:41;;;;;;;3.67;2.08;;;;;;;4.32;65.25;101667.66;1858995;77;21070;-63
2022/01/19 08:46:10;;;;;;;3.12;1.75;;;;;;;3.91;65.81;101663.19;1861915;77;21163;-64
2022/01/19 08:48:40;;;;;;;4.85;2.08;;;;;;;3.57;66.17;101671.73;1801564;77;21568;-65
2022/01/19 08:51:11;;;;;;;2.70;1.57;;;;;;;3.83;66.65;101665.33;1856969;77;21082;-64
2022/01/19 08:53:50;;;;;;;2.75;1.87;;;;;;;5.53;64.35;101666.26;1860628;77;21139;-62
2022/01/19 08:56:20;;;;;;;3.55;2.77;;;;;;;7.46;61.00;101667.05;1858867;77;21089;-64
2022/01/19 08:58:49;;;;;;;4.37;2.47;;;;;;;8.98;58.36;101660.11;1846831;77;21493;-65
2022/01/19 09:01:18;;;;;;;10.72;4.20;;;;;;;10.27;55.69;101660.53;1820530;79;21607;-63
2022/01/19 09:03:47;;;;;;;11.53;4.78;;;;;;;11.38;53.95;101656.02;1825593;78;21189;-63
2022/01/19 09:06:15;;;;;;;8.95;5.62;;;;;;;12.31;52.58;101658.13;1829403;78;21168;-67
2022/01/19 09:08:44;;;;;;;3.00;2.35;;;;;;;12.98;50.95;101661.24;1830677;78;21122;-68
2022/01/19 09:11:13;;;;;;;2.72;1.52;;;;;;;13.71;50.04;101656.45;1829495;78;21199;-68
2022/01/19 09:13:42;;;;;;;2.25;1.65;;;;;;;14.33;48.91;101639.48;1829459;78;21192;-69
2022/01/19 09:16:11;;;;;;;3.58;1.80;;;;;;;14.62;47.84;101639.17;1829555;78;21132;-69
2022/01/19 09:18:39;;;;;;;3.55;1.80;;;;;;;13.59;48.69;101635.73;1829497;78;21504;-70
2022/01/19 09:21:08;;;;;;;5.05;1.10;;;;;;;14.06;47.25;101632.58;1830173;78;21816;-69
2022/01/19 09:23:37;;;;;;;5.37;2.20;;;;;;;14.35;46.10;101631.00;1829486;78;21088;-68
2022/01/19 09:26:06;;;;;;;1.87;1.20;;;;;;;14.18;45.11;101627.25;1829495;78;21080;-69
2022/01/19 09:28:35;;;;;;;4.25;1.60;;;;;;;14.82;44.99;101628.21;1829468;78;21520;-70
2022/01/19 09:31:10;;;;;;;1.92;1.50;;;;;;;15.15;42.83;101623.70;1830749;78;21045;-68
2022/01/19 09:33:34;;;;;;;1.80;1.30;;;;;;;15.49;42.01;101624.83;1828493;78;21200;-68
2022/01/19 09:38:36;;;;;;;2.58;1.47;;;;;;;15.82;40.43;101608.72;1829491;78;21086;-67
2022/01/19 09:41:10;;;;;;;4.08;1.70;;;;;;;16.14;40.34;101613.43;1833563;77;21104;-66
2022/01/19 09:43:39;;;;;;;2.27;1.72;;;;;;;16.37;40.25;101611.81;1846730;78;21028;-66
2022/01/19 09:46:08;;;;;;;5.60;1.72;;;;;;;16.72;40.48;101613.64;1819555;79;21211;-68
2022/01/19 09:48:37;;;;;;;2.60;1.52;;;;;;;15.64;38.85;101610.88;1815533;79;21084;-70
2022/01/19 09:51:06;;;;;;;3.05;1.85;;;;;;;15.53;38.85;101611.37;1829757;78;21042;-68
2022/01/19 09:53:35;;;;;;;4.03;1.40;;;;;;;14.88;38.25;101609.37;1829739;78;21579;-72
2022/01/19 09:56:04;;;;;;;2.98;1.37;;;;;;;14.85;38.47;101605.55;1829689;78;21057;-70
2022/01/19 09:58:32;;;;;;;1.98;1.50;;;;;;;14.97;38.62;101598.84;1829629;78;21148;-72
2022/01/19 10:01:01;;;;;;;3.55;1.80;;;;;;;15.42;37.44;101598.59;1829630;78;21136;-68
2022/01/19 10:03:32;;;;;;;2.92;1.37;;;;;;;15.92;36.75;101592.34;1830450;78;21527;-67
2022/01/19 10:06:12;;;;;;;3.00;1.45;;;;;;;16.42;35.69;101590.33;1834397;78;21065;-68
2022/01/19 10:08:40;;;;;;;2.02;1.57;;;;;;;16.52;34.91;101602.20;1832973;78;21042;-69
2022/01/19 10:17:04;;;;;;;3.60;1.57;;;;;;;16.19;35.71;101583.48;1835372;77;21143;-65
2022/01/19 10:19:42;;;;;;;3.02;2.05;;;;;;;16.10;36.12;101585.27;1798604;79;21082;-62
2022/01/19 10:22:18;;;;;;;2.92;1.60;;;;;;;16.01;34.24;101585.27;1837879;77;21095;-61
2022/01/19 10:25:02;;;;;;;5.05;1.80;;;;;;;13.56;37.67;101585.59;1835572;78;21140;-61
2022/01/19 10:27:37;;;;;;;3.47;1.60;;;;;;;13.60;38.36;101592.48;1835613;78;21555;-62
2022/01/19 10:30:09;;;;;;;3.65;1.42;;;;;;;13.18;38.51;101591.33;1835694;78;21033;-61
2022/01/19 10:32:46;;;;;;;4.58;1.32;;;;;;;13.86;37.62;101587.03;1844249;77;21137;-62
2022/01/19 10:35:21;;;;;;;3.05;1.50;;;;;;;12.25;39.57;101592.32;1834568;77;21123;-62
2022/01/19 10:38:11;;;;;;;2.35;1.40;;;;;;;11.56;39.48;101592.66;1835581;78;21186;-61
2022/01/19 10:40:42;;;;;;;2.00;1.15;;;;;;;11.99;39.11;101591.84;1803956;79;21124;-62
2022/01/19 10:43:41;;;;;;;1.40;1.30;;;;;;;10.79;41.07;101590.84;1835551;78;21637;-62
2022/01/19 10:46:31;;;;;;;2.08;1.35;;;;;;;9.83;42.66;101595.31;1835677;78;21065;-62
2022/01/19 10:49:10;;;;;;;7.10;2.47;;;;;;;9.25;43.46;101598.27;1835579;78;21554;-62
2022/01/19 10:51:48;;;;;;;2.92;1.70;;;;;;;8.39;42.82;101598.49;1804146;79;21555;-63
2022/01/19 10:54:19;;;;;;;9.55;3.17;;;;;;;8.46;43.89;101599.27;1832422;78;21036;-64
2022/01/19 10:56:55;;;;;;;4.37;1.98;;;;;;;7.80;45.29;101598.92;1828435;78;21035;-64
2022/01/19 10:59:29;;;;;;;3.33;1.60;;;;;;;7.09;46.33;101610.27;1833548;78;21056;-64
2022/01/19 11:02:00;;;;;;;3.50;1.20;;;;;;;6.53;47.56;101609.48;1835939;78;21084;-65
2022/01/19 11:04:38;;;;;;;1.40;1.30;;;;;;;6.21;48.45;101603.19;1835872;78;21095;-63
2022/01/19 11:07:10;;;;;;;2.33;1.20;;;;;;;6.06;49.18;101607.22;1845521;77;21078;-65
2022/01/19 11:12:20;;;;;;;11.25;4.53;;;;;;;6.15;49.41;101613.25;1829474;77;21027;-63
2022/01/19 11:14:48;;;;;;;1.50;1.32;;;;;;;6.40;49.39;101613.09;1867134;77;21161;-62
2022/01/19 11:17:17;;;;;;;2.00;1.32;;;;;;;6.28;49.84;101613.17;1867271;77;21055;-61
2022/01/19 11:19:48;;;;;;;1.75;1.10;;;;;;;5.95;50.48;101621.21;1867043;77;21031;-62
2022/01/19 11:22:21;;;;;;;1.82;1.22;;;;;;;5.68;51.22;101618.71;1867408;77;21145;-62
2022/01/19 11:24:59;;;;;;;1.92;1.17;;;;;;;5.34;51.68;101616.25;1867311;77;21042;-61
2022/01/19 11:27:28;;;;;;;1.40;1.10;;;;;;;5.20;52.44;101616.27;1867161;77;21052;-61
2022/01/19 11:30:18;;;;;;;18.48;8.03;;;;;;;5.83;51.60;101615.15;1867161;77;21133;-61
2022/01/19 11:33:06;;;;;;;2.50;1.52;;;;;;;5.88;51.99;101613.38;1866711;77;21567;-61
2022/01/19 11:35:37;;;;;;;2.95;1.50;;;;;;;5.90;52.32;101609.02;1867123;77;21016;-61
2022/01/19 11:38:28;;;;;;;1.62;1.10;;;;;;;6.13;51.93;101604.55;1866802;77;21200;-62
2022/01/19 11:40:57;;;;;;;1.92;1.35;;;;;;;6.03;51.90;101600.69;1867106;77;21564;-61
2022/01/19 11:43:30;;;;;;;2.42;1.50;;;;;;;5.56;52.50;101602.22;1867299;77;21051;-62
2022/01/19 11:46:03;;;;;;;6.50;3.55;;;;;;;5.32;53.38;101615.38;1867175;77;21103;-61
2022/01/19 11:48:37;;;;;;;2.65;1.80;;;;;;;5.12;53.74;101614.13;1866792;77;21575;-61
2022/01/19 11:51:26;;;;;;;2.40;1.40;;;;;;;4.86;54.28;101608.52;1867143;77;21055;-63
2022/01/19 11:54:10;;;;;;;5.40;1.77;;;;;;;4.61;55.03;101613.77;1861629;77;21035;-61
2022/01/19 11:57:02;;;;;;;2.27;1.30;;;;;;;4.55;55.59;101619.41;1867437;77;21129;-61
2022/01/19 11:59:46;;;;;;;1.92;1.10;;;;;;;4.53;55.90;101615.50;1867073;77;21337;-62
2022/01/19 12:02:35;;;;;;;2.17;1.25;;;;;;;4.49;56.40;101613.77;1867125;77;21075;-61
2022/01/19 12:05:03;;;;;;;1.27;1.00;;;;;;;4.35;56.43;101612.88;1864070;77;21564;-61
2022/01/19 12:07:53;;;;;;;2.10;1.27;;;;;;;4.29;56.19;101616.36;1857695;77;21106;-61
2022/01/19 12:10:38;;;;;;;3.22;1.80;;;;;;;4.17;56.40;101621.14;1857949;77;21091;-61
2022/01/19 12:19:01;;;;;;;2.83;1.57;;;;;;;3.41;58.26;101639.57;1897843;75;21132;-61
2022/01/19 12:21:50;;;;;;;3.07;1.53;;;;;;;3.24;58.76;101637.29;1894496;75;21581;-61
2022/01/19 12:24:47;;;;;;;5.37;2.05;;;;;;;3.20;59.06;101639.45;1897776;75;21041;-62
2022/01/19 12:27:18;;;;;;;4.53;2.47;;;;;;;3.07;59.36;101635.45;1897864;75;21115;-61
2022/01/19 12:29:52;;;;;;;6.37;3.72;;;;;;;3.01;59.78;101645.83;1897870;75;21037;-61
2022/01/19 12:32:24;;;;;;;4.58;2.33;;;;;;;2.99;60.18;101638.86;1897875;75;21061;-61
2022/01/19 12:34:58;;;;;;;2.22;1.70;;;;;;;3.01;60.17;101649.73;1897728;75;21057;-61
2022/01/19 12:37:42;;;;;;;2.52;1.50;;;;;;;3.02;59.99;101648.00;1897957;75;21033;-61
2022/01/19 12:40:24;;;;;;;3.72;2.12;;;;;;;3.13;60.07;101654.14;1897313;75;21468;-62
2022/01/19 12:42:58;;;;;;;3.87;1.90;;;;;;;3.31;59.65;101647.31;1919443;73;20999;-59
2022/01/19 12:45:30;;;;;;;2.83;1.77;;;;;;;3.32;59.59;101644.73;1943534;73;21784;-62
2022/01/19 12:48:06;;;;;;;3.15;1.80;;;;;;;3.20;59.84;101655.06;1916609;73;21014;-58
2022/01/19 12:50:38;;;;;;;5.00;1.82;;;;;;;3.05;60.12;101654.53;1929698;73;21513;-60
2022/01/19 12:53:10;;;;;;;3.05;1.90;;;;;;;2.90;60.30;101666.56;1892379;75;21015;-58
2022/01/19 12:55:41;;;;;;;5.33;1.40;;;;;;;2.81;60.38;101669.54;1887882;76;21072;-60
2022/01/19 12:58:12;;;;;;;4.78;2.37;;;;;;;2.70;61.06;101657.30;1893810;73;21035;-59
2022/01/19 13:00:42;;;;;;;4.37;2.25;;;;;;;2.61;61.29;101654.63;1904879;73;21011;-58
2022/01/19 13:03:16;;;;;;;5.42;2.30;;;;;;;2.54;61.48;101664.53;1902346;75;21083;-59
2022/01/19 13:05:54;;;;;;;4.53;2.55;;;;;;;2.43;61.62;101675.27;1912072;75;21146;-58
2022/01/19 13:08:29;;;;;;;6.37;2.42;;;;;;;2.34;61.77;101674.73;1908049;75;21549;-58
2022/01/19 13:11:06;;;;;;;7.62;2.75;;;;;;;2.24;61.89;101685.48;1915736;73;21038;-58
2022/01/19 13:13:29;;;;;;;6.62;2.75;;;;;;;2.19;62.14;101688.45;1937764;73;21222;-59
2022/01/19 13:16:04;;;;;;;6.70;3.00;;;;;;;2.21;62.23;101682.84;1926288;73;21078;-60
2022/01/19 13:18:38;;;;;;;8.18;3.37;;;;;;;2.19;62.27;101688.45;1901859;73;21028;-59